createdAt,value
2018-03-30T00:00:46.589Z,24.42
2018-03-30T00:01:47.188Z,22.70
2018-03-30T00:02:36.239Z,21.25
2018-03-30T00:03:25.282Z,20.23
2018-03-30T00:04:14.420Z,18.83
2018-03-30T00:05:03.539Z,18.35
2018-03-30T00:05:52.589Z,17.00
2018-03-30T00:06:41.636Z,15.68
2018-03-30T00:07:30.687Z,17.73
2018-03-30T00:08:19.852Z,15.80
2018-03-30T00:09:08.959Z,15.68
2018-03-30T00:09:58.042Z,15.57
2018-03-30T00:10:52.520Z,16.85
2018-03-30T00:11:41.633Z,16.33
2018-03-30T00:12:30.760Z,15.27
2018-03-30T00:13:19.805Z,16.77
2018-03-30T00:14:08.868Z,16.73
2018-03-30T00:14:57.913Z,14.57
2018-03-30T00:15:46.968Z,15.73
2018-03-30T00:16:36.082Z,17.87
2018-03-30T00:17:25.123Z,17.42
2018-03-30T00:18:14.183Z,19.15
2018-03-30T00:19:03.227Z,26.50
2018-03-30T00:19:52.294Z,24.00
2018-03-30T00:20:41.340Z,23.50
2018-03-30T00:21:30.483Z,22.37
2018-03-30T00:22:19.563Z,23.45
2018-03-30T00:23:08.604Z,26.40
2018-03-30T00:23:57.747Z,33.55
2018-03-30T00:24:46.790Z,31.50
2018-03-30T00:25:35.860Z,29.65
2018-03-30T00:26:24.911Z,31.40
2018-03-30T00:27:14.001Z,31.90
2018-03-30T00:28:03.058Z,24.58
2018-03-30T00:28:52.099Z,21.40
2018-03-30T00:29:41.155Z,20.05
2018-03-30T00:30:30.213Z,17.35
2018-03-30T00:31:19.261Z,18.08
2018-03-30T00:32:08.301Z,18.73
2018-03-30T00:33:03.396Z,17.50
2018-03-30T00:33:52.437Z,19.67
2018-03-30T00:34:41.482Z,19.87
2018-03-30T00:35:30.532Z,17.73
2018-03-30T00:36:19.584Z,14.52
2018-03-30T00:37:08.628Z,13.50
2018-03-30T00:37:57.695Z,14.90
2018-03-30T00:38:46.927Z,15.85
2018-03-30T00:39:36.012Z,14.73
2018-03-30T00:40:25.049Z,15.48
2018-03-30T00:41:14.101Z,14.93
2018-03-30T00:42:03.144Z,18.48
2018-03-30T00:42:52.191Z,18.50
2018-03-30T00:43:41.243Z,17.10
2018-03-30T00:44:30.339Z,17.55
2018-03-30T00:45:19.390Z,16.05
2018-03-30T00:46:08.446Z,15.55
2018-03-30T00:46:57.493Z,15.98
2018-03-30T00:47:46.537Z,16.50
2018-03-30T00:48:35.584Z,16.67
2018-03-30T00:49:24.637Z,16.70
2018-03-30T00:50:13.798Z,15.63
2018-03-30T00:51:02.845Z,15.68
2018-03-30T00:51:51.897Z,15.50
2018-03-30T00:52:40.997Z,17.58
2018-03-30T00:53:54.694Z,16.12
2018-03-30T00:54:43.745Z,17.67
2018-03-30T00:55:32.890Z,17.60
2018-03-30T00:56:21.938Z,15.85
2018-03-30T00:57:10.990Z,16.10
2018-03-30T00:58:00.038Z,16.20
2018-03-30T00:58:49.089Z,16.75
2018-03-30T00:59:38.143Z,16.02
2018-03-30T01:00:27.187Z,16.92
2018-03-30T01:01:16.306Z,18.58
2018-03-30T01:02:05.367Z,18.60
2018-03-30T01:02:54.412Z,16.45
2018-03-30T01:03:43.481Z,17.98
2018-03-30T01:04:32.567Z,17.83
2018-03-30T01:05:21.687Z,17.50
2018-03-30T01:06:10.757Z,17.98
2018-03-30T01:06:59.852Z,18.05
2018-03-30T01:07:48.936Z,19.02
2018-03-30T01:08:38.012Z,17.73
2018-03-30T01:09:27.061Z,19.20
2018-03-30T01:10:16.106Z,19.45
2018-03-30T01:11:09.916Z,19.42
2018-03-30T01:11:58.977Z,18.50
2018-03-30T01:12:48.241Z,18.33
2018-03-30T01:13:37.288Z,17.08
2018-03-30T01:14:26.327Z,17.02
2018-03-30T01:15:15.373Z,16.50
2018-03-30T01:16:04.523Z,16.50
2018-03-30T01:16:53.570Z,17.02
2018-03-30T01:17:42.710Z,15.70
2018-03-30T01:18:31.878Z,16.23
2018-03-30T01:19:20.956Z,14.73
2018-03-30T01:20:10.026Z,15.60
2018-03-30T01:20:59.238Z,14.48
2018-03-30T01:21:48.291Z,14.68
2018-03-30T01:22:37.346Z,14.85
2018-03-30T01:23:26.402Z,13.88
2018-03-30T01:24:15.454Z,14.13
2018-03-30T01:25:04.506Z,14.85
2018-03-30T01:25:53.553Z,13.95
2018-03-30T01:26:42.662Z,14.25
2018-03-30T01:27:31.719Z,14.65
2018-03-30T01:28:23.734Z,15.02
2018-03-30T01:29:12.782Z,15.32
2018-03-30T01:30:01.858Z,13.70
2018-03-30T01:30:51.028Z,12.27
2018-03-30T01:31:40.151Z,13.50
2018-03-30T01:32:29.241Z,12.05
2018-03-30T01:33:18.285Z,12.45
2018-03-30T01:34:07.331Z,20.10
2018-03-30T01:34:56.398Z,79.15
2018-03-30T01:35:45.501Z,27.50
2018-03-30T01:36:34.548Z,16.55
2018-03-30T01:37:23.588Z,12.48
2018-03-30T01:38:15.760Z,13.50
2018-03-30T01:39:04.853Z,12.85
2018-03-30T01:39:53.938Z,15.30
2018-03-30T01:40:42.989Z,15.05
2018-03-30T01:41:32.048Z,17.45
2018-03-30T01:42:21.096Z,17.25
2018-03-30T01:43:10.149Z,18.85
2018-03-30T01:43:59.249Z,19.25
2018-03-30T01:44:48.297Z,18.83
2018-03-30T01:45:37.351Z,18.58
2018-03-30T01:46:26.438Z,18.52
2018-03-30T01:47:15.511Z,17.75
2018-03-30T01:48:04.560Z,18.12
2018-03-30T01:48:53.601Z,17.08
2018-03-30T01:49:42.649Z,14.68
2018-03-30T01:50:31.695Z,15.55
2018-03-30T01:51:20.743Z,15.63
2018-03-30T01:52:09.874Z,15.98
2018-03-30T01:52:58.934Z,16.60
2018-03-30T01:53:47.982Z,14.85
2018-03-30T01:54:37.031Z,13.90
2018-03-30T01:55:26.080Z,14.65
2018-03-30T01:56:15.130Z,14.35
2018-03-30T01:57:04.232Z,14.27
2018-03-30T01:57:53.378Z,14.00
2018-03-30T01:58:42.428Z,13.15
2018-03-30T01:59:31.473Z,13.48
2018-03-30T02:00:20.536Z,13.62
2018-03-30T02:01:09.583Z,12.63
2018-03-30T02:01:58.628Z,12.07
2018-03-30T02:02:47.673Z,13.32
2018-03-30T02:03:36.811Z,13.57
2018-03-30T02:04:25.881Z,12.30
2018-03-30T02:05:14.925Z,12.43
2018-03-30T02:06:04.001Z,12.68
2018-03-30T02:06:53.088Z,12.70
2018-03-30T02:07:42.139Z,15.82
2018-03-30T02:08:31.194Z,19.92
2018-03-30T02:09:20.293Z,18.67
2018-03-30T02:10:09.346Z,15.02
2018-03-30T02:10:58.396Z,16.23
2018-03-30T02:11:47.448Z,16.33
2018-03-30T02:12:36.526Z,16.12
2018-03-30T02:13:25.569Z,15.48
2018-03-30T02:14:14.617Z,16.37
2018-03-30T02:15:03.788Z,16.27
2018-03-30T02:15:52.833Z,18.05
2018-03-30T02:16:41.881Z,16.65
2018-03-30T02:17:30.926Z,17.85
2018-03-30T02:18:19.977Z,17.00
2018-03-30T02:19:09.036Z,17.15
2018-03-30T02:19:58.084Z,17.95
2018-03-30T02:20:47.746Z,17.35
2018-03-30T02:21:36.789Z,17.73
2018-03-30T02:22:25.840Z,17.73
2018-03-30T02:23:14.886Z,17.35
2018-03-30T02:24:03.948Z,17.52
2018-03-30T02:24:53.012Z,18.87
2018-03-30T02:25:42.076Z,19.33
2018-03-30T02:26:31.159Z,18.30
2018-03-30T02:27:20.357Z,18.12
2018-03-30T02:28:09.409Z,16.85
2018-03-30T02:28:58.453Z,17.55
2018-03-30T02:29:47.497Z,17.65
2018-03-30T02:30:36.554Z,16.40
2018-03-30T02:31:25.610Z,17.17
2018-03-30T02:32:14.687Z,16.60
2018-03-30T02:33:03.760Z,16.70
2018-03-30T02:33:52.818Z,17.87
2018-03-30T02:34:41.866Z,17.75
2018-03-30T02:35:30.910Z,17.70
2018-03-30T02:36:20.139Z,18.37
2018-03-30T02:37:09.189Z,20.15
2018-03-30T02:37:58.245Z,17.98
2018-03-30T02:38:47.292Z,22.05
2018-03-30T02:39:36.340Z,24.85
2018-03-30T02:40:25.455Z,23.20
2018-03-30T02:41:14.506Z,19.45
2018-03-30T02:42:03.558Z,22.02
2018-03-30T02:42:52.664Z,23.73
2018-03-30T02:43:41.714Z,31.15
2018-03-30T02:44:30.793Z,32.95
2018-03-30T02:45:19.857Z,38.40
2018-03-30T02:46:09.255Z,39.22
2018-03-30T02:46:58.317Z,48.53
2018-03-30T02:47:47.380Z,45.88
2018-03-30T02:48:36.615Z,27.83
2018-03-30T02:49:25.670Z,21.50
2018-03-30T02:50:14.734Z,22.30
2018-03-30T02:51:03.794Z,22.52
2018-03-30T02:51:52.846Z,23.12
2018-03-30T02:52:41.907Z,28.90
2018-03-30T02:53:30.955Z,39.95
2018-03-30T02:54:20.361Z,136.73
2018-03-30T02:55:09.413Z,67.05
2018-03-30T02:55:58.503Z,31.35
2018-03-30T02:56:47.584Z,29.02
2018-03-30T02:57:36.729Z,18.85
2018-03-30T02:58:25.718Z,19.98
2018-03-30T02:59:14.758Z,18.95
2018-03-30T03:00:03.858Z,16.80
2018-03-30T03:00:52.913Z,17.73
2018-03-30T03:01:42.019Z,18.48
2018-03-30T03:02:31.077Z,17.15
2018-03-30T03:03:20.124Z,18.05
2018-03-30T03:04:09.168Z,19.20
2018-03-30T03:04:58.318Z,20.55
2018-03-30T03:05:47.360Z,19.45
2018-03-30T03:06:36.411Z,21.02
2018-03-30T03:07:25.478Z,18.77
2018-03-30T03:08:14.536Z,21.15
2018-03-30T03:09:03.643Z,20.73
2018-03-30T03:09:52.717Z,20.15
2018-03-30T03:10:44.847Z,19.48
2018-03-30T03:11:33.920Z,18.58
2018-03-30T03:12:22.964Z,19.10
2018-03-30T03:13:12.007Z,21.50
2018-03-30T03:14:01.044Z,19.75
2018-03-30T03:14:50.093Z,20.10
2018-03-30T03:15:39.145Z,18.60
2018-03-30T03:16:28.261Z,17.37
2018-03-30T03:17:17.335Z,15.93
2018-03-30T03:18:06.385Z,17.35
2018-03-30T03:18:55.435Z,16.98
2018-03-30T03:19:44.492Z,15.70
2018-03-30T03:20:33.555Z,16.60
2018-03-30T03:21:22.704Z,16.27
2018-03-30T03:22:11.748Z,19.87
2018-03-30T03:23:00.791Z,21.27
2018-03-30T03:23:49.845Z,27.55
2018-03-30T03:24:38.896Z,22.25
2018-03-30T03:25:27.946Z,23.00
2018-03-30T03:26:16.995Z,23.90
2018-03-30T03:27:06.081Z,20.98
2018-03-30T03:27:55.135Z,18.95
2018-03-30T03:28:44.187Z,20.00
2018-03-30T03:29:33.236Z,19.75
2018-03-30T03:30:22.426Z,19.30
2018-03-30T03:31:11.471Z,18.98
2018-03-30T03:32:00.516Z,27.85
2018-03-30T03:32:49.602Z,31.80
2018-03-30T03:33:38.653Z,32.92
2018-03-30T03:34:27.706Z,55.10
2018-03-30T03:35:16.758Z,40.10
2018-03-30T03:36:05.821Z,34.05
2018-03-30T03:36:54.866Z,25.50
2018-03-30T03:37:43.913Z,28.85
2018-03-30T03:38:33.063Z,29.23
2018-03-30T03:39:22.108Z,29.17
2018-03-30T03:40:11.161Z,29.87
2018-03-30T03:41:00.214Z,30.35
2018-03-30T03:41:49.266Z,36.47
2018-03-30T03:42:40.700Z,45.35
2018-03-30T03:43:29.752Z,44.78
2018-03-30T03:44:18.938Z,41.95
2018-03-30T03:45:07.982Z,42.95
2018-03-30T03:45:57.030Z,41.47
2018-03-30T03:46:46.101Z,39.47
2018-03-30T03:47:35.163Z,43.17
2018-03-30T03:48:24.207Z,46.30
2018-03-30T03:49:13.253Z,43.78
2018-03-30T03:50:02.382Z,47.03
2018-03-30T03:50:51.449Z,47.13
2018-03-30T03:51:40.506Z,45.17
2018-03-30T03:52:29.552Z,44.85
2018-03-30T03:53:18.616Z,41.88
2018-03-30T03:54:07.974Z,38.03
2018-03-30T03:54:57.029Z,42.33
2018-03-30T03:55:46.095Z,42.33
2018-03-30T03:56:35.181Z,30.52
2018-03-30T03:57:24.222Z,60.22
2018-03-30T03:58:13.273Z,66.28
2018-03-30T03:59:02.330Z,33.83
2018-03-30T03:59:51.432Z,25.50
2018-03-30T04:00:40.483Z,18.67
2018-03-30T04:01:29.524Z,19.70
2018-03-30T04:02:18.570Z,19.33
2018-03-30T04:03:07.627Z,18.37
2018-03-30T04:03:56.681Z,17.75
2018-03-30T04:04:45.735Z,18.55
2018-03-30T04:05:34.947Z,22.10
2018-03-30T04:06:24.003Z,26.25
2018-03-30T04:07:13.095Z,30.15
2018-03-30T04:08:02.157Z,31.37
2018-03-30T04:08:51.234Z,37.10
2018-03-30T04:09:40.288Z,21.40
2018-03-30T04:10:29.345Z,23.48
2018-03-30T04:11:18.405Z,25.85
2018-03-30T04:12:07.463Z,29.55
2018-03-30T04:12:56.792Z,21.35
2018-03-30T04:13:45.854Z,21.52
2018-03-30T04:14:34.932Z,25.30
2018-03-30T04:15:23.984Z,23.80
2018-03-30T04:16:13.046Z,26.35
2018-03-30T04:17:02.093Z,22.90
2018-03-30T04:17:51.148Z,21.67
2018-03-30T04:18:40.240Z,21.20
2018-03-30T04:19:29.298Z,21.35
2018-03-30T04:20:18.349Z,19.98
2018-03-30T04:21:07.404Z,19.70
2018-03-30T04:21:56.461Z,18.73
2018-03-30T04:22:45.505Z,21.27
2018-03-30T04:23:34.565Z,19.85
2018-03-30T04:24:23.810Z,21.73
2018-03-30T04:25:12.874Z,24.12
2018-03-30T04:26:01.925Z,37.30
2018-03-30T04:26:50.981Z,59.55
2018-03-30T04:27:40.054Z,49.38
2018-03-30T04:28:29.110Z,35.67
2018-03-30T04:29:18.176Z,59.03
2018-03-30T04:30:07.400Z,52.22
2018-03-30T04:30:56.475Z,103.57
2018-03-30T04:31:45.545Z,71.90
2018-03-30T04:32:34.652Z,50.08
2018-03-30T04:33:23.729Z,29.48
2018-03-30T04:34:12.784Z,49.47
2018-03-30T04:35:01.890Z,44.47
2018-03-30T04:35:50.944Z,40.12
2018-03-30T04:36:40.018Z,33.90
2018-03-30T04:37:29.076Z,26.77
2018-03-30T04:38:18.127Z,29.67
2018-03-30T04:39:07.194Z,28.67
2018-03-30T04:39:56.257Z,26.62
2018-03-30T04:40:45.419Z,24.35
2018-03-30T04:41:34.471Z,23.12
2018-03-30T04:42:23.545Z,23.67
2018-03-30T04:43:12.606Z,21.65
2018-03-30T04:44:01.782Z,19.95
2018-03-30T04:44:51.101Z,23.33
2018-03-30T04:45:40.147Z,37.40
2018-03-30T04:46:29.248Z,36.03
2018-03-30T04:47:18.292Z,29.02
2018-03-30T04:48:07.341Z,32.20
2018-03-30T04:48:56.390Z,34.95
2018-03-30T04:49:45.431Z,25.60
2018-03-30T04:50:34.504Z,27.40
2018-03-30T04:51:24.453Z,34.45
2018-03-30T04:52:13.493Z,31.55
2018-03-30T04:53:02.543Z,30.77
2018-03-30T04:53:51.593Z,40.47
2018-03-30T04:54:40.639Z,76.93
2018-03-30T04:55:29.688Z,37.33
2018-03-30T04:56:18.762Z,28.67
2018-03-30T04:57:07.913Z,41.40
2018-03-30T04:57:56.963Z,38.88
2018-03-30T04:58:46.086Z,39.22
2018-03-30T04:59:35.137Z,39.58
2018-03-30T05:00:24.184Z,37.15
2018-03-30T05:01:13.246Z,36.38
2018-03-30T05:02:02.298Z,36.95
2018-03-30T05:02:51.377Z,43.10
2018-03-30T05:03:40.460Z,44.10
2018-03-30T05:04:29.567Z,42.33
2018-03-30T05:05:18.613Z,43.72
2018-03-30T05:06:07.655Z,50.03
2018-03-30T05:06:56.696Z,54.42
2018-03-30T05:07:45.750Z,52.60
2018-03-30T05:08:34.800Z,49.58
2018-03-30T05:09:23.959Z,52.78
2018-03-30T05:10:13.061Z,50.75
2018-03-30T05:11:02.168Z,49.58
2018-03-30T05:11:51.218Z,52.13
2018-03-30T05:12:40.301Z,52.17
2018-03-30T05:13:29.348Z,57.30
2018-03-30T05:14:18.401Z,58.92
2018-03-30T05:15:07.553Z,74.15
2018-03-30T05:15:56.626Z,67.43
2018-03-30T05:16:45.679Z,72.25
2018-03-30T05:17:34.733Z,69.93
2018-03-30T05:18:23.784Z,63.03
2018-03-30T05:19:12.833Z,61.33
2018-03-30T05:20:01.891Z,33.03
2018-03-30T05:20:51.093Z,25.85
2018-03-30T05:21:40.140Z,25.37
2018-03-30T05:22:29.194Z,27.42
2018-03-30T05:23:18.261Z,26.00
2018-03-30T05:24:07.308Z,30.58
2018-03-30T05:24:56.387Z,29.20
2018-03-30T05:25:45.425Z,30.77
2018-03-30T05:26:34.523Z,28.05
2018-03-30T05:27:23.561Z,28.35
2018-03-30T05:28:12.604Z,32.28
2018-03-30T05:29:01.658Z,36.72
2018-03-30T05:29:50.701Z,41.60
2018-03-30T05:30:39.873Z,48.90
2018-03-30T05:31:28.934Z,49.05
2018-03-30T05:32:18.037Z,56.72
2018-03-30T05:33:07.086Z,56.35
2018-03-30T05:33:56.154Z,63.30
2018-03-30T05:34:45.209Z,67.87
2018-03-30T05:35:34.266Z,63.22
2018-03-30T05:36:23.581Z,64.10
2018-03-30T05:37:12.640Z,60.83
2018-03-30T05:38:01.688Z,59.45
2018-03-30T05:38:50.733Z,55.58
2018-03-30T05:39:39.789Z,52.90
2018-03-30T05:40:28.841Z,50.83
2018-03-30T05:41:17.892Z,53.25
2018-03-30T05:42:06.980Z,35.20
2018-03-30T05:42:56.045Z,44.80
2018-03-30T05:43:45.097Z,45.00
2018-03-30T05:44:34.153Z,39.72
2018-03-30T05:45:23.196Z,32.45
2018-03-30T05:46:12.245Z,36.35
2018-03-30T05:47:01.299Z,38.75
2018-03-30T05:47:53.426Z,37.83
2018-03-30T05:48:42.495Z,33.80
2018-03-30T05:49:31.541Z,35.20
2018-03-30T05:50:20.582Z,34.13
2018-03-30T05:51:09.635Z,31.52
2018-03-30T05:51:58.681Z,28.70
2018-03-30T05:52:47.729Z,26.87
2018-03-30T05:53:36.835Z,26.62
2018-03-30T05:54:25.876Z,25.70
2018-03-30T05:55:15.016Z,24.02
2018-03-30T05:56:04.096Z,25.73
2018-03-30T05:56:53.246Z,30.15
2018-03-30T05:57:42.302Z,28.95
2018-03-30T05:58:31.358Z,26.87
2018-03-30T05:59:20.402Z,24.48
2018-03-30T06:00:09.453Z,22.50
2018-03-30T06:00:58.544Z,23.62
2018-03-30T06:01:47.591Z,21.45
2018-03-30T06:02:36.641Z,24.00
2018-03-30T06:03:25.682Z,27.62
2018-03-30T06:04:14.734Z,29.23
2018-03-30T06:05:03.794Z,23.92
2018-03-30T06:05:52.844Z,25.95
2018-03-30T06:06:41.932Z,24.00
2018-03-30T06:07:30.981Z,24.60
2018-03-30T06:08:20.051Z,18.37
2018-03-30T06:09:09.116Z,18.77
2018-03-30T06:09:58.164Z,22.60
2018-03-30T06:10:47.220Z,20.00
2018-03-30T06:11:36.265Z,31.33
2018-03-30T06:12:25.410Z,31.25
2018-03-30T06:13:14.459Z,27.08
2018-03-30T06:14:03.501Z,23.50
2018-03-30T06:14:52.583Z,19.42
2018-03-30T06:15:41.623Z,16.10
2018-03-30T06:16:30.662Z,17.67
2018-03-30T06:17:19.953Z,18.23
2018-03-30T06:18:12.062Z,19.02
2018-03-30T06:19:01.171Z,14.10
2018-03-30T06:19:50.202Z,15.10
2018-03-30T06:20:39.249Z,14.77
2018-03-30T06:21:28.304Z,15.30
2018-03-30T06:22:17.354Z,13.95
2018-03-30T06:23:06.401Z,14.20
2018-03-30T06:23:55.503Z,17.80
2018-03-30T06:24:44.541Z,15.10
2018-03-30T06:25:33.594Z,13.82
2018-03-30T06:26:22.688Z,16.35
2018-03-30T06:27:11.770Z,20.27
2018-03-30T06:28:00.817Z,27.90
2018-03-30T06:28:49.870Z,18.17
2018-03-30T06:29:38.928Z,18.25
2018-03-30T06:30:27.969Z,18.20
2018-03-30T06:31:17.011Z,18.98
2018-03-30T06:32:06.186Z,16.58
2018-03-30T06:32:55.232Z,18.40
2018-03-30T06:33:44.277Z,18.45
2018-03-30T06:34:33.345Z,19.17
2018-03-30T06:35:22.406Z,18.95
2018-03-30T06:36:11.463Z,28.90
2018-03-30T06:37:00.636Z,32.60
2018-03-30T06:37:49.687Z,24.40
2018-03-30T06:38:38.782Z,39.08
2018-03-30T06:39:27.824Z,37.38
2018-03-30T06:40:16.865Z,29.98
2018-03-30T06:41:05.915Z,27.02
2018-03-30T06:41:54.964Z,25.95
2018-03-30T06:42:44.016Z,25.15
2018-03-30T06:43:33.186Z,27.10
2018-03-30T06:44:22.238Z,31.23
2018-03-30T06:45:11.276Z,28.95
2018-03-30T06:46:00.325Z,27.02
2018-03-30T06:46:49.369Z,28.38
2018-03-30T06:47:38.420Z,28.70
2018-03-30T06:48:27.480Z,29.27
2018-03-30T06:49:16.564Z,28.10
2018-03-30T06:50:05.609Z,30.08
2018-03-30T06:50:54.662Z,31.23
2018-03-30T06:51:43.721Z,33.35
2018-03-30T06:52:32.789Z,39.75
2018-03-30T06:53:21.835Z,32.53
2018-03-30T06:54:10.890Z,33.17
2018-03-30T06:55:00.039Z,39.20
2018-03-30T06:55:49.084Z,36.17
2018-03-30T06:56:38.214Z,38.00
2018-03-30T06:57:27.263Z,35.72
2018-03-30T06:58:16.338Z,34.95
2018-03-30T06:59:05.414Z,33.90
2018-03-30T06:59:54.507Z,32.90
2018-03-30T07:00:43.533Z,31.42
2018-03-30T07:01:32.582Z,27.90
2018-03-30T07:02:21.629Z,25.08
2018-03-30T07:03:10.741Z,28.38
2018-03-30T07:03:59.800Z,17.27
2018-03-30T07:04:48.843Z,19.40
2018-03-30T07:05:37.892Z,14.30
2018-03-30T07:06:26.941Z,12.98
2018-03-30T07:07:15.984Z,14.45
2018-03-30T07:08:05.064Z,13.23
2018-03-30T07:08:54.176Z,9.55
2018-03-30T07:09:43.251Z,14.80
2018-03-30T07:10:32.293Z,14.87
2018-03-30T07:11:21.342Z,13.80
2018-03-30T07:12:10.388Z,13.70
2018-03-30T07:12:59.433Z,18.75
2018-03-30T07:13:48.492Z,23.85
2018-03-30T07:14:37.711Z,27.42
2018-03-30T07:15:26.761Z,21.65
2018-03-30T07:16:15.805Z,16.58
2018-03-30T07:17:04.845Z,16.15
2018-03-30T07:17:53.952Z,15.95
2018-03-30T07:18:43.001Z,16.90
2018-03-30T07:19:32.052Z,14.73
2018-03-30T07:20:21.099Z,17.90
2018-03-30T07:21:10.197Z,16.80
2018-03-30T07:21:59.237Z,24.00
2018-03-30T07:22:48.285Z,23.10
2018-03-30T07:23:37.327Z,30.90
2018-03-30T07:24:26.382Z,35.42
2018-03-30T07:25:15.521Z,21.62
2018-03-30T07:26:04.594Z,16.62
2018-03-30T07:26:53.654Z,22.30
2018-03-30T07:27:42.702Z,18.65
2018-03-30T07:28:31.748Z,22.80
2018-03-30T07:29:20.802Z,20.95
2018-03-30T07:30:09.957Z,16.20
2018-03-30T07:30:59.006Z,15.55
2018-03-30T07:31:48.052Z,16.00
2018-03-30T07:32:37.101Z,14.63
2018-03-30T07:33:26.155Z,14.60
2018-03-30T07:34:15.270Z,15.27
2018-03-30T07:35:04.317Z,13.60
2018-03-30T07:35:53.359Z,13.13
2018-03-30T07:36:42.413Z,13.25
2018-03-30T07:37:31.456Z,13.55
2018-03-30T07:38:20.498Z,13.52
2018-03-30T07:39:09.544Z,12.13
2018-03-30T07:39:58.692Z,12.57
2018-03-30T07:40:47.737Z,12.48
2018-03-30T07:41:36.789Z,17.77
2018-03-30T07:42:25.896Z,14.27
2018-03-30T07:43:15.013Z,14.77
2018-03-30T07:44:04.127Z,12.68
2018-03-30T07:44:53.236Z,11.65
2018-03-30T07:45:42.459Z,13.35
2018-03-30T07:46:31.581Z,10.27
2018-03-30T07:47:20.771Z,10.25
2018-03-30T07:48:09.888Z,9.57
2018-03-30T07:48:59.014Z,9.82
2018-03-30T07:49:48.149Z,11.60
2018-03-30T07:50:37.257Z,9.35
2018-03-30T07:51:26.514Z,9.20
2018-03-30T07:52:15.989Z,10.88
2018-03-30T07:53:06.365Z,23.27
2018-03-30T07:53:58.629Z,10.82
2018-03-30T07:54:48.728Z,11.68
2018-03-30T07:55:37.992Z,9.80
2018-03-30T07:56:27.110Z,11.77
2018-03-30T07:57:16.212Z,11.50
2018-03-30T07:58:05.335Z,10.15
2018-03-30T07:58:54.643Z,10.18
2018-03-30T07:59:43.760Z,12.43
2018-03-30T08:00:32.875Z,11.73
2018-03-30T08:01:21.992Z,13.98
2018-03-30T08:02:11.104Z,12.68
2018-03-30T08:03:00.226Z,12.48
2018-03-30T08:03:49.510Z,12.90
2018-03-30T08:04:38.717Z,15.38
2018-03-30T08:05:27.893Z,13.02
2018-03-30T08:06:16.976Z,12.37
2018-03-30T08:07:06.174Z,11.55
2018-03-30T08:07:55.270Z,11.98
2018-03-30T08:08:44.364Z,11.93
2018-03-30T08:09:33.708Z,14.05
2018-03-30T08:10:22.881Z,14.87
2018-03-30T08:11:11.941Z,14.95
2018-03-30T08:12:01.039Z,14.50
2018-03-30T08:12:50.119Z,13.70
2018-03-30T08:13:39.246Z,12.65
2018-03-30T08:14:28.310Z,12.07
2018-03-30T08:15:17.377Z,11.88
2018-03-30T08:16:06.450Z,11.32
2018-03-30T08:16:55.548Z,13.35
2018-03-30T08:17:44.838Z,11.50
2018-03-30T08:18:33.900Z,11.75
2018-03-30T08:19:23.014Z,12.70
2018-03-30T08:20:12.073Z,12.02
2018-03-30T08:21:01.158Z,11.48
2018-03-30T08:21:50.219Z,12.13
2018-03-30T08:22:39.439Z,12.48
2018-03-30T08:23:28.502Z,11.50
2018-03-30T08:24:17.564Z,12.00
2018-03-30T08:25:06.655Z,14.48
2018-03-30T08:25:55.803Z,11.75
2018-03-30T08:26:44.879Z,13.25
2018-03-30T08:27:33.945Z,13.57
2018-03-30T08:28:23.002Z,15.35
2018-03-30T08:29:12.063Z,15.10
2018-03-30T08:30:01.191Z,16.62
2018-03-30T08:30:50.265Z,15.48
2018-03-30T08:31:39.327Z,12.70
2018-03-30T08:32:28.414Z,12.35
2018-03-30T08:33:17.474Z,12.88
2018-03-30T08:34:06.534Z,13.13
2018-03-30T08:34:55.699Z,12.70
2018-03-30T08:35:44.764Z,13.88
2018-03-30T08:36:33.826Z,12.20
2018-03-30T08:37:22.889Z,13.43
2018-03-30T08:38:11.966Z,13.18
2018-03-30T08:39:01.022Z,13.23
2018-03-30T08:39:50.081Z,14.18
2018-03-30T08:40:39.241Z,13.27
2018-03-30T08:41:28.297Z,13.60
2018-03-30T08:42:17.407Z,15.20
2018-03-30T08:43:06.463Z,17.33
2018-03-30T08:43:55.520Z,14.68
2018-03-30T08:44:44.571Z,13.18
2018-03-30T08:45:33.629Z,12.02
2018-03-30T08:46:22.742Z,13.65
2018-03-30T08:47:11.805Z,11.82
2018-03-30T08:48:00.860Z,13.20
2018-03-30T08:48:50.008Z,13.65
2018-03-30T08:49:39.101Z,13.65
2018-03-30T08:50:28.149Z,12.63
2018-03-30T08:51:17.227Z,13.70
2018-03-30T08:52:06.377Z,14.32
2018-03-30T08:52:55.428Z,13.85
2018-03-30T08:53:44.502Z,13.50
2018-03-30T08:54:33.554Z,12.48
2018-03-30T08:55:22.628Z,10.73
2018-03-30T08:56:11.734Z,12.25
2018-03-30T08:57:00.773Z,12.45
2018-03-30T08:57:50.109Z,11.27
2018-03-30T08:58:39.177Z,12.60
2018-03-30T08:59:28.237Z,12.90
2018-03-30T09:00:17.302Z,14.40
2018-03-30T09:01:06.353Z,13.60
2018-03-30T09:01:55.414Z,13.60
2018-03-30T09:02:44.497Z,13.55
2018-03-30T09:03:33.549Z,13.25
2018-03-30T09:04:22.624Z,13.38
2018-03-30T09:05:11.678Z,13.15
2018-03-30T09:06:00.731Z,14.43
2018-03-30T09:06:49.790Z,14.35
2018-03-30T09:07:38.848Z,15.45
2018-03-30T09:08:28.009Z,15.05
2018-03-30T09:09:17.085Z,16.25
2018-03-30T09:10:06.256Z,14.82
2018-03-30T09:10:55.309Z,15.75
2018-03-30T09:11:44.366Z,17.42
2018-03-30T09:12:33.425Z,32.83
2018-03-30T09:13:22.516Z,15.93
2018-03-30T09:14:11.741Z,18.65
2018-03-30T09:15:00.807Z,17.70
2018-03-30T09:15:49.861Z,22.58
2018-03-30T09:16:38.937Z,16.77
2018-03-30T09:17:27.994Z,13.23
2018-03-30T09:18:17.088Z,14.93
2018-03-30T09:19:06.161Z,14.57
2018-03-30T09:19:55.213Z,15.20
2018-03-30T09:20:44.274Z,12.37
2018-03-30T09:21:33.337Z,14.38
2018-03-30T09:22:22.402Z,14.15
2018-03-30T09:23:11.460Z,13.57
2018-03-30T09:24:00.618Z,13.70
2018-03-30T09:24:49.675Z,15.13
2018-03-30T09:25:38.737Z,14.82
2018-03-30T09:26:27.856Z,14.95
2018-03-30T09:27:16.934Z,14.45
2018-03-30T09:28:05.997Z,13.02
2018-03-30T09:28:55.061Z,15.10
2018-03-30T09:29:49.624Z,14.20
2018-03-30T09:30:38.698Z,13.62
2018-03-30T09:31:27.771Z,14.52
2018-03-30T09:32:16.819Z,13.27
2018-03-30T09:33:05.894Z,13.60
2018-03-30T09:33:54.958Z,12.57
2018-03-30T09:34:44.073Z,13.10
2018-03-30T09:35:33.130Z,12.15
2018-03-30T09:36:22.198Z,12.60
2018-03-30T09:37:11.257Z,12.15
2018-03-30T09:38:00.306Z,12.73
2018-03-30T09:38:49.414Z,11.55
2018-03-30T09:39:38.521Z,11.60
2018-03-30T09:40:27.574Z,10.95
2018-03-30T09:41:16.630Z,13.25
2018-03-30T09:42:05.691Z,10.52
2018-03-30T09:42:54.833Z,11.00
2018-03-30T09:43:43.923Z,9.05
2018-03-30T09:44:32.978Z,10.35
2018-03-30T09:45:22.041Z,10.00
2018-03-30T09:46:11.089Z,9.52
2018-03-30T09:47:00.133Z,9.02
2018-03-30T09:47:49.181Z,9.60
2018-03-30T09:48:38.281Z,11.23
2018-03-30T09:49:27.334Z,11.80
2018-03-30T09:50:16.389Z,10.82
2018-03-30T09:51:05.452Z,10.40
2018-03-30T09:51:54.512Z,10.25
2018-03-30T09:52:43.560Z,9.05
2018-03-30T09:53:32.612Z,9.20
2018-03-30T09:54:21.693Z,8.77
2018-03-30T09:55:10.753Z,10.02
2018-03-30T09:55:59.805Z,9.20
2018-03-30T09:56:48.862Z,8.77
2018-03-30T09:57:37.918Z,8.73
2018-03-30T09:58:26.971Z,8.35
2018-03-30T09:59:16.019Z,8.05
2018-03-30T10:00:05.181Z,9.15
2018-03-30T10:02:08.788Z,9.70
2018-03-30T10:02:57.903Z,8.70
2018-03-30T10:03:48.958Z,8.30
2018-03-30T10:04:44.565Z,8.85
2018-03-30T10:05:33.835Z,9.23
2018-03-30T10:06:23.267Z,9.48
2018-03-30T10:07:13.218Z,8.95
2018-03-30T10:08:02.685Z,9.40
2018-03-30T10:08:52.120Z,9.10
2018-03-30T10:09:41.558Z,9.75
2018-03-30T10:10:30.964Z,9.60
2018-03-30T10:11:26.878Z,9.75
2018-03-30T10:12:20.559Z,9.25
2018-03-30T10:13:09.805Z,10.80
2018-03-30T10:13:59.047Z,10.30
2018-03-30T10:14:48.273Z,9.43
2018-03-30T10:15:37.527Z,9.05
2018-03-30T10:16:26.731Z,12.23
2018-03-30T10:17:15.801Z,11.10
2018-03-30T10:18:04.930Z,10.02
2018-03-30T10:18:53.999Z,9.85
2018-03-30T10:19:43.081Z,9.88
2018-03-30T10:20:32.163Z,9.85
2018-03-30T10:21:22.047Z,10.27
2018-03-30T10:22:11.131Z,9.65
2018-03-30T10:23:00.220Z,8.43
2018-03-30T10:23:49.297Z,9.02
2018-03-30T10:24:38.453Z,8.32
2018-03-30T10:25:27.537Z,9.05
2018-03-30T10:26:16.780Z,9.18
2018-03-30T10:27:05.861Z,8.77
2018-03-30T10:27:54.931Z,8.57
2018-03-30T10:28:44.010Z,8.75
2018-03-30T10:29:33.085Z,7.30
2018-03-30T10:30:22.227Z,7.68
2018-03-30T10:31:11.268Z,7.60
2018-03-30T10:32:00.465Z,7.70
2018-03-30T10:32:49.542Z,8.30
2018-03-30T10:33:38.610Z,7.87
2018-03-30T10:34:27.682Z,8.43
2018-03-30T10:35:16.750Z,8.00
2018-03-30T10:36:05.834Z,8.55
2018-03-30T10:36:55.047Z,7.78